Terminal Aerodrome Forecast
Issued by NWS

Home | Current Version | Previous Version | Text Only | Print | Product List | Glossary On
Versions: 1 2 3 4 5 6 7 8 9 10 11 12 13 14 15
000
FTUS42 KMHX 031154 CCA
TAFPGV
TAF COR
KPGV 031154Z 0312/0412 24005KT P6SM VCSH SCT008 OVC015
     FM031600 20006KT P6SM VCTS BKN050CB
     FM040400 21007KT P6SM VCSH SCT010 BKN100
      AMD LTD TO CLD VIS AND WIND=

USA.gov is the U.S. government's official web portal to all federal, state and local government web resources and services.